createdAt,value
2018-08-20T00:01:33.697Z,9.10
2018-08-20T00:04:07.910Z,8.80
2018-08-20T00:06:49.294Z,6.73
2018-08-20T00:09:18.619Z,6.90
2018-08-20T00:11:47.319Z,6.13
2018-08-20T00:14:17.549Z,5.97
2018-08-20T00:16:46.013Z,7.03
2018-08-20T00:19:14.784Z,6.07
2018-08-20T00:21:44.395Z,6.70
2018-08-20T00:24:12.797Z,6.57
2018-08-20T00:26:41.069Z,6.67
2018-08-20T00:29:09.385Z,6.60
2018-08-20T00:31:37.654Z,6.87
2018-08-20T00:34:05.944Z,6.67
2018-08-20T00:36:34.330Z,6.13
2018-08-20T00:39:02.684Z,6.50
2018-08-20T00:41:30.962Z,6.27
2018-08-20T00:43:59.243Z,5.93
2018-08-20T00:46:27.502Z,5.43
2018-08-20T00:48:55.815Z,5.83
2018-08-20T00:51:24.104Z,5.27
2018-08-20T00:53:52.396Z,6.07
2018-08-20T00:56:20.701Z,5.70
2018-08-20T00:58:48.976Z,5.73
2018-08-20T01:01:17.283Z,6.13
2018-08-20T01:03:45.593Z,6.10
2018-08-20T01:06:13.894Z,6.23
2018-08-20T01:08:42.186Z,5.13
2018-08-20T01:11:10.538Z,5.33
2018-08-20T01:13:38.811Z,9.23
2018-08-20T01:16:07.229Z,35.53
2018-08-20T01:18:35.583Z,23.57
2018-08-20T01:21:03.918Z,23.33
2018-08-20T01:23:32.223Z,30.57
2018-08-20T01:26:00.528Z,19.67
2018-08-20T01:28:28.791Z,16.50
2018-08-20T01:30:57.115Z,18.40
2018-08-20T01:33:25.458Z,15.93
2018-08-20T01:35:53.741Z,15.70
2018-08-20T01:38:22.048Z,16.73
2018-08-20T01:40:50.342Z,16.23
2018-08-20T01:43:18.634Z,17.07
2018-08-20T01:45:46.939Z,14.47
2018-08-20T01:48:15.236Z,14.43
2018-08-20T01:50:43.552Z,14.47
2018-08-20T01:53:11.865Z,14.13
2018-08-20T01:55:40.161Z,13.73
2018-08-20T01:58:08.534Z,12.70
2018-08-20T02:00:36.819Z,13.00
2018-08-20T02:03:05.160Z,12.53
2018-08-20T02:05:33.582Z,12.67
2018-08-20T02:08:02.194Z,12.60
2018-08-20T02:10:30.492Z,11.60
2018-08-20T02:12:58.781Z,12.77
2018-08-20T02:15:27.048Z,11.33
2018-08-20T02:17:56.621Z,11.27
2018-08-20T02:20:24.909Z,11.30
2018-08-20T02:22:53.182Z,11.67
2018-08-20T02:25:21.458Z,11.20
2018-08-20T02:27:49.774Z,10.60
2018-08-20T02:30:18.047Z,11.50
2018-08-20T02:32:46.324Z,10.57
2018-08-20T02:35:14.586Z,9.47
2018-08-20T02:37:45.674Z,11.77
2018-08-20T02:40:14.720Z,9.93
2018-08-20T02:42:43.019Z,9.73
2018-08-20T02:45:14.477Z,10.40
2018-08-20T02:47:43.300Z,9.93
2018-08-20T02:50:12.411Z,10.40
2018-08-20T02:52:41.114Z,10.27
2018-08-20T02:55:09.420Z,9.13
2018-08-20T02:57:38.250Z,9.10
2018-08-20T03:00:10.455Z,8.77
2018-08-20T03:02:40.622Z,9.13
2018-08-20T03:05:09.959Z,9.10
2018-08-20T03:07:38.259Z,8.27
2018-08-20T03:10:08.419Z,7.43
2018-08-20T03:12:36.920Z,7.90
2018-08-20T03:15:05.904Z,8.10
2018-08-20T03:17:34.245Z,8.00
2018-08-20T03:20:02.566Z,7.47
2018-08-20T03:22:30.842Z,8.30
2018-08-20T03:24:59.133Z,6.97
2018-08-20T03:27:27.405Z,6.73
2018-08-20T03:29:55.711Z,7.40
2018-08-20T03:32:24.038Z,7.30
2018-08-20T03:34:52.403Z,6.80
2018-08-20T03:37:20.813Z,6.87
2018-08-20T03:39:49.086Z,7.33
2018-08-20T03:42:17.387Z,7.30
2018-08-20T03:44:45.672Z,6.77
2018-08-20T03:47:13.944Z,5.87
2018-08-20T03:49:42.233Z,6.70
2018-08-20T03:52:10.515Z,7.17
2018-08-20T03:54:38.762Z,5.97
2018-08-20T03:57:07.096Z,6.37
2018-08-20T03:59:36.718Z,6.63
2018-08-20T04:02:06.256Z,6.13
2018-08-20T04:04:34.564Z,6.13
2018-08-20T04:07:04.342Z,6.43
2018-08-20T04:09:33.114Z,5.97
2018-08-20T04:12:02.342Z,5.83
2018-08-20T04:14:30.621Z,6.77
2018-08-20T04:16:59.491Z,5.73
2018-08-20T04:19:28.178Z,5.70
2018-08-20T04:21:56.583Z,5.77
2018-08-20T04:24:24.853Z,5.57
2018-08-20T04:26:53.134Z,4.30
2018-08-20T04:29:21.882Z,5.10
2018-08-20T04:31:50.147Z,5.00
2018-08-20T04:34:18.415Z,4.50
2018-08-20T04:36:46.704Z,4.23
2018-08-20T04:39:14.988Z,4.30
2018-08-20T04:41:43.248Z,5.03
2018-08-20T04:44:11.519Z,4.60
2018-08-20T04:46:39.799Z,4.10
2018-08-20T04:49:08.073Z,4.37
2018-08-20T04:51:36.452Z,3.90
2018-08-20T04:54:04.717Z,3.67
2018-08-20T04:56:33.071Z,3.70
2018-08-20T04:59:01.409Z,4.07
2018-08-20T05:01:29.715Z,3.60
2018-08-20T05:03:58.011Z,3.53
2018-08-20T05:06:26.265Z,3.87
2018-08-20T05:08:54.563Z,3.77
2018-08-20T05:11:22.829Z,3.70
2018-08-20T05:13:51.302Z,3.30
2018-08-20T05:16:19.587Z,4.50
2018-08-20T05:18:47.896Z,6.10
2018-08-20T05:21:16.243Z,9.40
2018-08-20T05:23:44.517Z,6.90
2018-08-20T05:26:12.819Z,6.57
2018-08-20T05:28:41.083Z,7.10
2018-08-20T05:31:09.356Z,8.40
2018-08-20T05:33:37.636Z,13.40
2018-08-20T05:36:05.946Z,16.20
2018-08-20T05:38:34.219Z,20.53
2018-08-20T05:41:02.490Z,14.07
2018-08-20T05:43:30.763Z,14.77
2018-08-20T05:45:59.042Z,15.70
2018-08-20T05:48:27.487Z,14.20
2018-08-20T05:50:55.772Z,12.87
2018-08-20T05:53:24.043Z,12.70
2018-08-20T05:55:52.379Z,11.90
2018-08-20T05:58:20.667Z,13.93
2018-08-20T06:00:48.968Z,11.23
2018-08-20T06:03:17.268Z,12.40
2018-08-20T06:05:45.543Z,12.50
2018-08-20T06:08:13.823Z,10.60
2018-08-20T06:10:42.102Z,11.03
2018-08-20T06:13:10.496Z,10.07
2018-08-20T06:15:38.780Z,10.37
2018-08-20T06:18:07.108Z,10.23
2018-08-20T06:20:35.390Z,9.80
2018-08-20T06:23:03.714Z,8.33
2018-08-20T06:25:32.083Z,9.23
2018-08-20T06:28:00.355Z,9.87
2018-08-20T06:30:28.635Z,9.23
2018-08-20T06:32:56.945Z,8.57
2018-08-20T06:35:25.235Z,7.50
2018-08-20T06:37:53.533Z,7.40
2018-08-20T06:40:21.809Z,7.37
2018-08-20T06:42:50.119Z,7.80
2018-08-20T06:45:18.482Z,8.00
2018-08-20T06:47:47.392Z,6.90
2018-08-20T06:50:16.055Z,7.07
2018-08-20T06:52:45.199Z,7.27
2018-08-20T06:55:14.959Z,5.43
2018-08-20T06:57:44.326Z,7.80
2018-08-20T07:00:12.762Z,7.00
2018-08-20T07:02:41.242Z,6.87
2018-08-20T07:05:09.744Z,6.87
2018-08-20T07:07:39.343Z,7.33
2018-08-20T07:10:09.559Z,5.30
2018-08-20T07:12:38.143Z,5.73
2018-08-20T07:15:07.336Z,6.20
2018-08-20T07:17:35.669Z,5.33
2018-08-20T07:20:04.703Z,4.73
2018-08-20T07:22:32.959Z,4.93
2018-08-20T07:25:01.244Z,5.63
2018-08-20T07:27:29.535Z,5.53
2018-08-20T07:29:57.823Z,5.77
2018-08-20T07:32:26.094Z,5.50
2018-08-20T07:34:54.392Z,5.37
2018-08-20T07:37:22.647Z,4.33
2018-08-20T07:39:50.994Z,5.40
2018-08-20T07:42:19.282Z,5.13
2018-08-20T07:44:47.554Z,4.57
2018-08-20T07:47:15.831Z,4.37
2018-08-20T07:49:44.134Z,4.03
2018-08-20T07:52:12.432Z,4.00
2018-08-20T07:54:41.213Z,4.60
2018-08-20T07:57:10.380Z,4.43
2018-08-20T07:59:38.759Z,4.13
2018-08-20T08:02:07.571Z,3.80
2018-08-20T08:04:35.932Z,4.17
2018-08-20T08:07:04.207Z,3.80
2018-08-20T08:09:32.510Z,4.00
2018-08-20T08:12:00.804Z,3.97
2018-08-20T08:14:29.108Z,3.97
2018-08-20T08:16:57.382Z,4.07
2018-08-20T08:19:25.680Z,3.73
2018-08-20T08:21:53.986Z,3.80
2018-08-20T08:24:22.338Z,3.87
2018-08-20T08:26:50.622Z,3.73
2018-08-20T08:29:19.229Z,3.83
2018-08-20T08:31:47.503Z,4.33
2018-08-20T08:34:15.848Z,3.60
2018-08-20T08:36:44.111Z,3.33
2018-08-20T08:39:13.699Z,3.13
2018-08-20T08:41:41.999Z,3.60
2018-08-20T08:44:10.394Z,3.50
2018-08-20T08:46:38.691Z,3.53
2018-08-20T08:49:06.984Z,4.53
2018-08-20T08:51:35.317Z,5.10
2018-08-20T08:54:03.608Z,4.77
2018-08-20T08:56:32.075Z,5.30
2018-08-20T08:59:00.426Z,5.73
2018-08-20T09:01:28.960Z,5.30
2018-08-20T09:03:57.256Z,4.40
2018-08-20T09:06:25.532Z,3.10
2018-08-20T09:08:53.902Z,2.93
2018-08-20T09:11:22.401Z,2.93
2018-08-20T09:13:50.728Z,16.47
2018-08-20T09:16:19.108Z,15.27
2018-08-20T09:18:47.447Z,12.10
2018-08-20T09:21:15.758Z,13.27
2018-08-20T09:23:44.043Z,16.10
2018-08-20T09:26:12.332Z,17.50
2018-08-20T09:28:40.622Z,24.87
2018-08-20T09:31:08.955Z,22.97
2018-08-20T09:33:37.243Z,20.73
2018-08-20T09:36:05.534Z,13.80
2018-08-20T09:38:33.825Z,12.30
2018-08-20T09:41:02.118Z,13.23
2018-08-20T09:43:30.422Z,9.07
2018-08-20T09:45:58.728Z,10.90
2018-08-20T09:48:27.108Z,13.57
2018-08-20T09:50:55.484Z,17.30
2018-08-20T09:53:23.850Z,17.33
2018-08-20T09:55:52.072Z,19.20
2018-08-20T09:58:20.383Z,19.23
2018-08-20T10:00:48.666Z,14.87
2018-08-20T10:03:16.959Z,11.90
2018-08-20T10:05:45.273Z,12.23
2018-08-20T10:08:13.561Z,10.97
2018-08-20T10:10:41.851Z,8.07
2018-08-20T10:13:10.147Z,6.33
2018-08-20T10:15:38.478Z,7.53
2018-08-20T10:18:07.685Z,8.50
2018-08-20T10:20:35.962Z,16.57
2018-08-20T10:23:04.254Z,15.70
2018-08-20T10:25:32.535Z,17.10
2018-08-20T10:28:00.799Z,9.70
2018-08-20T10:30:29.096Z,8.60
2018-08-20T10:32:57.402Z,7.03
2018-08-20T10:35:25.697Z,7.03
2018-08-20T10:37:54.102Z,6.60
2018-08-20T10:40:22.280Z,7.53
2018-08-20T10:42:50.550Z,11.53
2018-08-20T10:45:20.055Z,10.37
2018-08-20T10:47:49.659Z,25.13
2018-08-20T10:50:19.276Z,16.90
2018-08-20T10:52:49.684Z,14.50
2018-08-20T10:55:17.963Z,10.57
2018-08-20T10:57:46.384Z,9.37
2018-08-20T11:00:15.351Z,9.20
2018-08-20T11:02:43.703Z,7.73
2018-08-20T11:05:13.727Z,5.47
2018-08-20T11:07:42.056Z,5.87
2018-08-20T11:10:10.588Z,4.83
2018-08-20T11:12:38.814Z,4.27
2018-08-20T11:15:08.471Z,3.63
2018-08-20T11:17:37.066Z,3.53
2018-08-20T11:20:15.167Z,4.57
2018-08-20T11:22:43.716Z,4.20
2018-08-20T11:25:12.654Z,4.73
2018-08-20T11:27:41.037Z,4.80
2018-08-20T11:30:10.645Z,5.57
2018-08-20T11:32:38.940Z,5.43
2018-08-20T11:35:07.603Z,5.10
2018-08-20T11:37:35.891Z,4.33
2018-08-20T11:40:04.543Z,3.90
2018-08-20T11:42:32.946Z,3.90
2018-08-20T11:45:01.219Z,4.37
2018-08-20T11:47:29.496Z,3.53
2018-08-20T11:49:57.800Z,3.57
2018-08-20T11:52:26.097Z,3.07
2018-08-20T11:54:54.382Z,2.50
2018-08-20T11:57:22.674Z,2.00
2018-08-20T11:59:51.040Z,2.20
2018-08-20T12:02:19.315Z,1.70
2018-08-20T12:04:47.715Z,1.93
2018-08-20T12:07:15.988Z,1.67
2018-08-20T12:09:44.259Z,4.43
2018-08-20T12:12:12.555Z,6.47
2018-08-20T12:14:40.827Z,9.87
2018-08-20T12:17:09.236Z,7.80
2018-08-20T12:19:37.528Z,6.77
2018-08-20T12:22:05.939Z,5.40
2018-08-20T12:24:34.279Z,4.70
2018-08-20T12:27:02.548Z,4.87
2018-08-20T12:29:30.851Z,3.70
2018-08-20T12:31:59.286Z,4.40
2018-08-20T12:34:27.598Z,3.67
2018-08-20T12:36:55.850Z,3.63
2018-08-20T12:39:24.112Z,6.97
2018-08-20T12:41:52.463Z,4.43
2018-08-20T12:44:20.771Z,11.53
2018-08-20T12:46:49.121Z,6.87
2018-08-20T12:49:17.402Z,9.17
2018-08-20T12:51:45.760Z,7.20
2018-08-20T12:54:14.049Z,5.27
2018-08-20T12:56:42.763Z,5.57
2018-08-20T12:59:11.046Z,5.50
2018-08-20T13:01:39.344Z,4.50
2018-08-20T13:04:07.636Z,4.43
2018-08-20T13:06:35.893Z,3.93
2018-08-20T13:09:05.660Z,3.63
2018-08-20T13:11:33.939Z,3.63
2018-08-20T13:14:02.212Z,4.00
2018-08-20T13:16:30.494Z,3.73
2018-08-20T13:18:58.783Z,2.77
2018-08-20T13:21:27.043Z,3.70
2018-08-20T13:23:55.322Z,7.67
2018-08-20T13:26:23.618Z,13.03
2018-08-20T13:28:51.911Z,11.03
2018-08-20T13:31:20.196Z,10.67
2018-08-20T13:33:48.516Z,8.47
2018-08-20T13:36:16.788Z,6.50
2018-08-20T13:38:45.038Z,5.87
2018-08-20T13:41:13.307Z,3.47
2018-08-20T13:43:41.620Z,3.67
2018-08-20T13:46:10.039Z,3.50
2018-08-20T13:48:38.347Z,2.40
2018-08-20T13:51:06.647Z,1.90
2018-08-20T13:53:34.905Z,2.27
2018-08-20T13:56:03.234Z,5.17
2018-08-20T13:58:31.524Z,2.80
2018-08-20T14:00:59.815Z,3.87
2018-08-20T14:03:28.149Z,2.90
2018-08-20T14:05:56.427Z,4.03
2018-08-20T14:08:24.757Z,3.63
2018-08-20T14:10:53.052Z,5.07
2018-08-20T14:13:21.334Z,4.83
2018-08-20T14:15:49.591Z,4.73
2018-08-20T14:18:17.855Z,4.47
2018-08-20T14:20:55.981Z,3.40
2018-08-20T14:23:24.267Z,17.87
2018-08-20T14:25:52.528Z,9.97
2018-08-20T14:28:20.811Z,9.23
2018-08-20T14:30:49.063Z,6.90
2018-08-20T14:33:17.320Z,4.50
2018-08-20T14:35:45.599Z,4.07
2018-08-20T14:38:13.845Z,3.43
2018-08-20T14:40:42.143Z,3.17
2018-08-20T14:43:10.423Z,3.40
2018-08-20T14:45:44.139Z,2.17
2018-08-20T14:48:12.442Z,1.90
2018-08-20T14:50:40.765Z,1.63
2018-08-20T14:53:09.084Z,1.37
2018-08-20T14:55:37.423Z,0.97
2018-08-20T14:58:05.699Z,0.80
2018-08-20T15:00:34.005Z,2.50
2018-08-20T15:03:02.270Z,3.83
2018-08-20T15:05:30.548Z,8.00
2018-08-20T15:07:58.894Z,4.60
2018-08-20T15:10:27.159Z,7.57
2018-08-20T15:12:55.450Z,5.13
2018-08-20T15:15:23.845Z,3.53
2018-08-20T15:17:52.000Z,2.80
2018-08-20T15:20:20.250Z,9.63
2018-08-20T15:22:48.517Z,7.13
2018-08-20T15:25:16.797Z,6.80
2018-08-20T15:27:45.082Z,11.53
2018-08-20T15:30:13.355Z,11.93
2018-08-20T15:32:41.695Z,9.53
2018-08-20T15:35:09.880Z,8.70
2018-08-20T15:37:38.196Z,8.30
2018-08-20T15:40:06.553Z,9.37
2018-08-20T15:42:34.847Z,10.70
2018-08-20T15:45:03.108Z,5.27
2018-08-20T15:47:31.363Z,5.83
2018-08-20T15:49:59.635Z,4.67
2018-08-20T15:52:27.916Z,6.03
2018-08-20T15:54:56.227Z,7.67
2018-08-20T15:57:24.475Z,6.87
2018-08-20T15:59:52.802Z,10.27
2018-08-20T16:02:21.073Z,5.53
2018-08-20T16:04:49.342Z,7.77
2018-08-20T16:07:17.636Z,6.00
2018-08-20T16:09:45.888Z,3.20
2018-08-20T16:12:14.182Z,4.97
2018-08-20T16:14:42.463Z,3.20
2018-08-20T16:17:10.711Z,3.17
2018-08-20T16:19:39.006Z,2.83
2018-08-20T16:22:07.291Z,2.07
2018-08-20T16:24:35.539Z,2.10
2018-08-20T16:27:03.843Z,2.27
2018-08-20T16:29:32.133Z,1.43
2018-08-20T16:32:00.398Z,0.90
2018-08-20T16:34:28.640Z,1.50
2018-08-20T16:36:57.091Z,1.40
2018-08-20T16:39:25.472Z,1.73
2018-08-20T16:41:53.656Z,3.80
2018-08-20T16:44:21.914Z,3.93
2018-08-20T16:46:50.194Z,5.60
2018-08-20T16:49:18.471Z,7.30
2018-08-20T16:51:46.773Z,6.43
2018-08-20T16:54:15.144Z,5.80
2018-08-20T16:56:43.448Z,5.10
2018-08-20T16:59:11.762Z,5.80
2018-08-20T17:01:40.130Z,5.33
2018-08-20T17:04:22.872Z,5.13
2018-08-20T17:06:51.179Z,5.57
2018-08-20T17:09:19.465Z,6.53
2018-08-20T17:11:47.777Z,10.00
2018-08-20T17:14:16.052Z,7.97
2018-08-20T17:16:44.339Z,8.43
2018-08-20T17:19:12.621Z,8.33
2018-08-20T17:21:40.907Z,9.57
2018-08-20T17:24:09.207Z,9.83
2018-08-20T17:26:37.482Z,9.60
2018-08-20T17:29:11.371Z,10.63
2018-08-20T17:31:39.876Z,10.53
2018-08-20T17:34:08.148Z,10.70
2018-08-20T17:36:38.663Z,11.67
2018-08-20T17:39:07.863Z,10.17
2018-08-20T17:41:36.160Z,10.17
2018-08-20T17:44:04.706Z,10.07
2018-08-20T17:46:33.098Z,10.17
2018-08-20T17:49:01.443Z,9.63
2018-08-20T17:51:29.734Z,11.03
2018-08-20T17:53:59.171Z,11.23
2018-08-20T17:56:27.547Z,12.67
2018-08-20T17:59:01.284Z,11.87
2018-08-20T18:01:33.109Z,12.13
2018-08-20T18:04:01.446Z,14.27
2018-08-20T18:06:43.081Z,15.50
2018-08-20T18:09:11.352Z,15.30
2018-08-20T18:11:44.985Z,14.90
2018-08-20T18:14:13.360Z,14.83
2018-08-20T18:16:41.652Z,14.67
2018-08-20T18:19:09.921Z,15.23
2018-08-20T18:21:38.247Z,14.67
2018-08-20T18:24:10.924Z,13.97
2018-08-20T18:26:43.678Z,14.03
2018-08-20T18:29:12.384Z,18.00
2018-08-20T18:31:40.716Z,16.87
2018-08-20T18:34:09.019Z,17.30
2018-08-20T18:36:37.357Z,17.93
2018-08-20T18:39:11.658Z,18.97
2018-08-20T18:42:17.643Z,20.33
2018-08-20T18:44:47.616Z,20.77
2018-08-20T18:47:17.267Z,21.07
2018-08-20T18:49:53.043Z,20.67
2018-08-20T18:52:22.483Z,20.43
2018-08-20T18:54:52.207Z,19.63
2018-08-20T18:57:26.444Z,19.40
2018-08-20T18:59:58.999Z,19.67
2018-08-20T19:02:39.367Z,17.97
2018-08-20T19:05:09.512Z,19.23
2018-08-20T19:07:37.829Z,20.53
2018-08-20T19:10:08.856Z,22.57
2018-08-20T19:12:37.339Z,24.10
2018-08-20T19:15:21.209Z,26.03
2018-08-20T19:17:49.540Z,26.97
2018-08-20T19:20:18.022Z,26.33
2018-08-20T19:22:46.368Z,25.23
2018-08-20T19:25:14.744Z,22.70
2018-08-20T19:27:43.098Z,23.57
2018-08-20T19:30:17.955Z,28.07
2018-08-20T19:32:46.952Z,48.53
2018-08-20T19:35:15.273Z,41.67
2018-08-20T19:37:44.019Z,37.73
2018-08-20T19:40:12.428Z,38.27
2018-08-20T19:42:41.214Z,38.70
2018-08-20T19:45:12.054Z,36.03
2018-08-20T19:47:40.491Z,34.23
2018-08-20T19:50:13.480Z,32.90
2018-08-20T19:52:41.852Z,29.90
2018-08-20T19:55:11.774Z,31.23
2018-08-20T19:57:43.501Z,31.70
2018-08-20T20:00:15.662Z,33.60
2018-08-20T20:02:44.436Z,35.03
2018-08-20T20:05:13.975Z,45.37
2018-08-20T20:07:51.283Z,66.00
2018-08-20T20:10:19.783Z,61.23
2018-08-20T20:12:54.458Z,93.43
2018-08-20T20:15:26.630Z,106.97
2018-08-20T20:17:59.388Z,139.33
2018-08-20T20:20:29.960Z,137.03
2018-08-20T20:22:58.587Z,99.53
2018-08-20T20:25:26.969Z,101.00
2018-08-20T20:27:55.347Z,92.07
2018-08-20T20:30:23.699Z,85.13
2018-08-20T20:32:52.069Z,78.20
2018-08-20T20:35:20.475Z,74.37
2018-08-20T20:37:49.021Z,110.97
2018-08-20T20:40:17.357Z,131.00
2018-08-20T20:42:45.744Z,167.13
2018-08-20T20:45:14.090Z,130.60
2018-08-20T20:47:42.606Z,92.77
2018-08-20T20:50:10.960Z,87.37
2018-08-20T20:52:39.449Z,86.70
2018-08-20T20:55:07.887Z,86.80
2018-08-20T20:57:36.313Z,85.03
2018-08-20T21:00:05.300Z,86.83
2018-08-20T21:02:33.808Z,85.23
2018-08-20T21:05:08.656Z,81.53
2018-08-20T21:07:37.152Z,78.40
2018-08-20T21:10:06.156Z,77.50
2018-08-20T21:12:34.542Z,90.93
2018-08-20T21:15:02.959Z,130.53
2018-08-20T21:17:33.115Z,128.93
2018-08-20T21:20:01.513Z,132.97
2018-08-20T21:22:29.797Z,108.50
2018-08-20T21:24:58.112Z,96.33
2018-08-20T21:27:26.520Z,175.13
2018-08-20T21:29:57.007Z,141.03
2018-08-20T21:32:25.311Z,129.40
2018-08-20T21:34:53.585Z,120.83
2018-08-20T21:37:21.878Z,98.27
2018-08-20T21:39:50.189Z,91.60
2018-08-20T21:42:22.490Z,84.33
2018-08-20T21:44:50.859Z,83.67
2018-08-20T21:47:24.780Z,148.43
2018-08-20T21:49:53.107Z,112.47
2018-08-20T21:52:21.496Z,137.70
2018-08-20T21:54:49.766Z,117.33
2018-08-20T21:57:18.080Z,98.10
2018-08-20T21:59:58.112Z,96.00
2018-08-20T22:02:27.210Z,101.37
2018-08-20T22:04:55.524Z,100.47
2018-08-20T22:07:23.823Z,99.07
2018-08-20T22:09:52.271Z,101.70
2018-08-20T22:12:20.587Z,146.27
2018-08-20T22:14:48.878Z,108.70
2018-08-20T22:17:22.543Z,96.77
2018-08-20T22:19:50.813Z,93.50
2018-08-20T22:22:23.610Z,93.97
2018-08-20T22:24:57.223Z,96.03
2018-08-20T22:27:26.031Z,93.77
2018-08-20T22:29:54.337Z,89.50
2018-08-20T22:32:22.631Z,85.50
2018-08-20T22:34:51.051Z,80.80
2018-08-20T22:37:19.366Z,75.97
2018-08-20T22:39:53.635Z,71.17
2018-08-20T22:43:25.447Z,70.33
2018-08-20T22:45:53.724Z,66.20
2018-08-20T22:48:22.009Z,63.67
2018-08-20T22:51:02.113Z,62.00
2018-08-20T22:53:32.850Z,64.07
2018-08-20T22:56:11.513Z,59.37
2018-08-20T22:58:39.810Z,69.30
2018-08-20T23:01:08.076Z,99.57
2018-08-20T23:03:36.342Z,109.63
2018-08-20T23:06:04.622Z,95.97
2018-08-20T23:08:32.948Z,91.83
2018-08-20T23:11:01.222Z,88.20
2018-08-20T23:13:29.632Z,82.17
2018-08-20T23:15:57.923Z,71.80
2018-08-20T23:18:26.198Z,72.53
2018-08-20T23:20:54.528Z,70.97
2018-08-20T23:23:37.501Z,67.37
2018-08-20T23:26:08.188Z,64.30
2018-08-20T23:28:38.436Z,62.10
2018-08-20T23:31:06.706Z,58.97
2018-08-20T23:33:38.780Z,55.33
2018-08-20T23:36:07.418Z,58.13
2018-08-20T23:38:35.696Z,53.93
2018-08-20T23:41:04.115Z,55.70
2018-08-20T23:43:32.381Z,55.40
2018-08-20T23:46:00.687Z,54.23
2018-08-20T23:48:28.963Z,53.03
2018-08-20T23:51:03.226Z,54.53
2018-08-20T23:53:31.491Z,52.60
2018-08-20T23:55:59.786Z,52.83
2018-08-20T23:58:28.047Z,52.60
